^^
Meteo Knjazevac Station Historical Data
Daily Summary for June 22, 2021 Units:  Both    English   Metric
Daily Weekly Monthly Yearly Custom
  High: Low: Average:
Temperature: 55.6 °F /  13.1 °C 52.3 °F /  11.3 °C 53.9 °F /  12.2 °C
Dew Point: 49.8 °F /  9.9 °C 47 °F /  8.3 °C 48.2 °F /  9 °C
Humidity: 85% 75% 81%
Wind Speed: 8mph /  12.9km/h - 3mph /  4.8km/h
Wind Gust: 13mph /  20.9km/h - -
Wind- - West
Pressure: 30.29 in /  1025.6 hPa 30.22 in /  1023.2 hPa -
Precipitation: 0.00 in /  0 mm    
Historical Graphs
 
 
Tabular Data for June 22, 2021
Time Temperature Dew Point Pressure Wind Wind Speed Wind Gust Humidity Rainfall Rate (Hourly) solar Conditions
00:00 55.6 °F /  13.1 °C 49.8 °F /  9.9 °C 30.29in /  1025.6hPa WSW 2mph /  3.2km/h 8mph /  12.9km/h 81% 0.00in /  0mm 0 W/m2
00:10 55.6 °F /  13.1 °C 49.8 °F /  9.9 °C 30.29in /  1025.6hPa WSW 2mph /  3.2km/h 4mph /  6.4km/h 81% 0.00in /  0mm 0 W/m2
00:20 55.4 °F /  13 °C 49.7 °F /  9.8 °C 30.29in /  1025.6hPa WSW 2mph /  3.2km/h 5mph /  8km/h 81% 0.00in /  0mm 0 W/m2
00:30 55.4 °F /  13 °C 49.7 °F /  9.8 °C 30.29in /  1025.6hPa WSW 2mph /  3.2km/h 6mph /  9.7km/h 81% 0.00in /  0mm 0 W/m2
00:40 55.2 °F /  12.9 °C 49.5 °F /  9.7 °C 30.29in /  1025.6hPa WSW 2mph /  3.2km/h 6mph /  9.7km/h 81% 0.00in /  0mm 0 W/m2
00:50 55.2 °F /  12.9 °C 49.5 °F /  9.7 °C 30.28in /  1025.3hPa West 1mph /  1.6km/h 3mph /  4.8km/h 81% 0.00in /  0mm 0 W/m2
01:00 55 °F /  12.8 °C 49.3 °F /  9.6 °C 30.29in /  1025.6hPa West 2mph /  3.2km/h 5mph /  8km/h 81% 0.00in /  0mm 0 W/m2
01:10 55 °F /  12.8 °C 49.3 °F /  9.6 °C 30.29in /  1025.6hPa West 3mph /  4.8km/h 5mph /  8km/h 81% 0.00in /  0mm 0 W/m2
01:20 55.2 °F /  12.9 °C 49.4 °F /  9.7 °C 30.29in /  1025.6hPa WSW 2mph /  3.2km/h 5mph /  8km/h 81% 0.00in /  0mm 0 W/m2
01:30 55 °F /  12.8 °C 49.3 °F /  9.6 °C 30.28in /  1025.3hPa West 1mph /  1.6km/h 4mph /  6.4km/h 81% 0.00in /  0mm 0 W/m2
01:40 55 °F /  12.8 °C 49.3 °F /  9.6 °C 30.28in /  1025.3hPa West 1mph /  1.6km/h 5mph /  8km/h 81% 0.00in /  0mm 0 W/m2
01:50 54.9 °F /  12.7 °C 49.1 °F /  9.5 °C 30.28in /  1025.3hPa Calm   2mph /  3.2km/h 81% 0.00in /  0mm 0 W/m2
02:00 54.9 °F /  12.7 °C 49.1 °F /  9.5 °C 30.28in /  1025.3hPa Calm   2mph /  3.2km/h 81% 0.00in /  0mm 0 W/m2
02:10 54.7 °F /  12.6 °C 49 °F /  9.4 °C 30.27in /  1024.9hPa Calm   2mph /  3.2km/h 81% 0.00in /  0mm 0 W/m2
02:20 54.5 °F /  12.5 °C 48.8 °F /  9.3 °C 30.27in /  1024.9hPa WNW 1mph /  1.6km/h 2mph /  3.2km/h 81% 0.00in /  0mm 0 W/m2
02:30 54.5 °F /  12.5 °C 48.8 °F /  9.3 °C 30.27in /  1024.9hPa WSW 1mph /  1.6km/h 4mph /  6.4km/h 81% 0.00in /  0mm 0 W/m2
02:40 54.3 °F /  12.4 °C 49.3 °F /  9.6 °C 30.27in /  1024.9hPa West 2mph /  3.2km/h 4mph /  6.4km/h 83% 0.00in /  0mm 0 W/m2
02:50 54.1 °F /  12.3 °C 49.1 °F /  9.5 °C 30.26in /  1024.6hPa WNW 2mph /  3.2km/h 4mph /  6.4km/h 83% 0.00in /  0mm 0 W/m2
03:00 54.1 °F /  12.3 °C 49.1 °F /  9.5 °C 30.26in /  1024.6hPa NW 1mph /  1.6km/h 4mph /  6.4km/h 83% 0.00in /  0mm 0 W/m2
03:10 54.1 °F /  12.3 °C 49.1 °F /  9.5 °C 30.25in /  1024.3hPa Calm   3mph /  4.8km/h 83% 0.00in /  0mm 0 W/m2
03:20 54 °F /  12.2 °C 48.9 °F /  9.4 °C 30.25in /  1024.3hPa Calm   1mph /  1.6km/h 83% 0.00in /  0mm 0 W/m2
03:30 54 °F /  12.2 °C 49.2 °F /  9.6 °C 30.25in /  1024.3hPa NNW 1mph /  1.6km/h 2mph /  3.2km/h 84% 0.00in /  0mm 0 W/m2
03:40 53.8 °F /  12.1 °C 49.1 °F /  9.5 °C 30.25in /  1024.3hPa Calm   1mph /  1.6km/h 84% 0.00in /  0mm 0 W/m2
03:50 53.6 °F /  12 °C 49.2 °F /  9.6 °C 30.25in /  1024.3hPa Calm   2mph /  3.2km/h 85% 0.00in /  0mm 0 W/m2
04:00 53.6 °F /  12 °C 49.2 °F /  9.6 °C 30.25in /  1024.3hPa Calm   2mph /  3.2km/h 85% 0.00in /  0mm 0 W/m2
04:10 53.4 °F /  11.9 °C 49 °F /  9.4 °C 30.25in /  1024.3hPa West 2mph /  3.2km/h 3mph /  4.8km/h 85% 0.00in /  0mm 0 W/m2
04:20 53.2 °F /  11.8 °C 48.5 °F /  9.2 °C 30.25in /  1024.3hPa West 1mph /  1.6km/h 3mph /  4.8km/h 84% 0.00in /  0mm 0 W/m2
04:30 53.2 °F /  11.8 °C 48.5 °F /  9.2 °C 30.25in /  1024.3hPa West 1mph /  1.6km/h 3mph /  4.8km/h 84% 0.00in /  0mm 0 W/m2
04:40 53.1 °F /  11.7 °C 48.4 °F /  9.1 °C 30.25in /  1024.3hPa West 1mph /  1.6km/h 3mph /  4.8km/h 84% 0.00in /  0mm 0 W/m2
04:50 53.1 °F /  11.7 °C 48 °F /  8.9 °C 30.25in /  1024.3hPa WNW 1mph /  1.6km/h 3mph /  4.8km/h 83% 0.00in /  0mm 0 W/m2
05:00 52.9 °F /  11.6 °C 47.9 °F /  8.8 °C 30.25in /  1024.3hPa WNW 1mph /  1.6km/h 3mph /  4.8km/h 83% 0.00in /  0mm 0 W/m2
05:10 52.9 °F /  11.6 °C 48.2 °F /  9 °C 30.25in /  1024.3hPa West 2mph /  3.2km/h 4mph /  6.4km/h 84% 0.00in /  0mm 0 W/m2
05:20 52.9 °F /  11.6 °C 47.9 °F /  8.8 °C 30.25in /  1024.3hPa West 2mph /  3.2km/h 6mph /  9.7km/h 83% 0.00in /  0mm 0 W/m2
05:30 52.7 °F /  11.5 °C 47.4 °F /  8.6 °C 30.25in /  1024.3hPa WSW 3mph /  4.8km/h 7mph /  11.3km/h 82% 0.00in /  0mm 0 W/m2
05:40 52.9 °F /  11.6 °C 47.2 °F /  8.4 °C 30.24in /  1023.9hPa WSW 5mph /  8km/h 8mph /  12.9km/h 81% 0.00in /  0mm 0 W/m2
05:50 52.9 °F /  11.6 °C 47.9 °F /  8.8 °C 30.24in /  1023.9hPa SW 3mph /  4.8km/h 6mph /  9.7km/h 83% 0.00in /  0mm 0 W/m2
06:00 52.9 °F /  11.6 °C 48.2 °F /  9 °C 30.24in /  1023.9hPa WSW 3mph /  4.8km/h 6mph /  9.7km/h 84% 0.00in /  0mm 0 W/m2
06:10 52.7 °F /  11.5 °C 48.3 °F /  9.1 °C 30.25in /  1024.3hPa WSW 2mph /  3.2km/h 6mph /  9.7km/h 85% 0.00in /  0mm 0 W/m2
06:20 52.7 °F /  11.5 °C 48.3 °F /  9.1 °C 30.24in /  1023.9hPa SW 3mph /  4.8km/h 5mph /  8km/h 85% 0.00in /  0mm 0 W/m2
06:30 52.5 °F /  11.4 °C 48.1 °F /  8.9 °C 30.24in /  1023.9hPa WSW 3mph /  4.8km/h 5mph /  8km/h 85% 0.00in /  0mm 1 W/m2
06:40 52.7 °F /  11.5 °C 48.3 °F /  9.1 °C 30.24in /  1023.9hPa SW 5mph /  8km/h 7mph /  11.3km/h 85% 0.00in /  0mm 2 W/m2
06:50 52.6 °F /  11.4 °C 48.3 °F /  9.1 °C 30.23in /  1023.6hPa WSW 2mph /  3.2km/h 5mph /  8km/h 85% 0.00in /  0mm 5 W/m2
07:00 52.5 °F /  11.4 °C 48.1 °F /  8.9 °C 30.23in /  1023.6hPa WSW 3mph /  4.8km/h 5mph /  8km/h 85% 0.00in /  0mm 8 W/m2
07:10 52.3 °F /  11.3 °C 48 °F /  8.9 °C 30.23in /  1023.6hPa SW 3mph /  4.8km/h 5mph /  8km/h 85% 0.00in /  0mm 14 W/m2
07:20 52.3 °F /  11.3 °C 48 °F /  8.9 °C 30.23in /  1023.6hPa WSW 3mph /  4.8km/h 6mph /  9.7km/h 85% 0.00in /  0mm 26 W/m2
07:30 52.3 °F /  11.3 °C 48 °F /  8.9 °C 30.22in /  1023.2hPa SW 5mph /  8km/h 7mph /  11.3km/h 85% 0.00in /  0mm 24 W/m2
07:40 52.3 °F /  11.3 °C 48 °F /  8.9 °C 30.22in /  1023.2hPa SW 3mph /  4.8km/h 7mph /  11.3km/h 85% 0.00in /  0mm 35 W/m2
07:50 52.5 °F /  11.4 °C 47.8 °F /  8.8 °C 30.22in /  1023.2hPa WSW 6mph /  9.7km/h 12mph /  19.3km/h 84% 0.00in /  0mm 34 W/m2
08:00 52.7 °F /  11.5 °C 47 °F /  8.3 °C 30.23in /  1023.6hPa WSW 5mph /  8km/h 10mph /  16.1km/h 81% 0.00in /  0mm 37 W/m2
08:10 52.9 °F /  11.6 °C 47.2 °F /  8.4 °C 30.22in /  1023.2hPa West 6mph /  9.7km/h 10mph /  16.1km/h 81% 0.00in /  0mm 43 W/m2
08:20 52.9 °F /  11.6 °C 47.2 °F /  8.4 °C 30.22in /  1023.2hPa West 8mph /  12.9km/h 12mph /  19.3km/h 81% 0.00in /  0mm 57 W/m2
08:30 52.9 °F /  11.6 °C 47.3 °F /  8.5 °C 30.22in /  1023.2hPa West 7mph /  11.3km/h 12mph /  19.3km/h 81% 0.00in /  0mm 51 W/m2
08:40 53.1 °F /  11.7 °C 47.4 °F /  8.6 °C 30.22in /  1023.2hPa West 5mph /  8km/h 12mph /  19.3km/h 81% 0.00in /  0mm 67 W/m2
08:50 53.2 °F /  11.8 °C 47.2 °F /  8.4 °C 30.22in /  1023.2hPa West 7mph /  11.3km/h 10mph /  16.1km/h 80% 0.00in /  0mm 104 W/m2
09:00 53.4 °F /  11.9 °C 47.4 °F /  8.6 °C 30.22in /  1023.2hPa West 5mph /  8km/h 9mph /  14.5km/h 80% 0.00in /  0mm 96 W/m2
09:10 53.6 °F /  12 °C 47.2 °F /  8.4 °C 30.22in /  1023.2hPa West 7mph /  11.3km/h 13mph /  20.9km/h 79% 0.00in /  0mm 105 W/m2
09:20 53.8 °F /  12.1 °C 47.4 °F /  8.6 °C 30.22in /  1023.2hPa West 5mph /  8km/h 13mph /  20.9km/h 79% 0.00in /  0mm 84 W/m2
09:30 53.8 °F /  12.1 °C 47.1 °F /  8.4 °C 30.22in /  1023.2hPa West 6mph /  9.7km/h 12mph /  19.3km/h 78% 0.00in /  0mm 97 W/m2
09:40 54 °F /  12.2 °C 47.3 °F /  8.5 °C 30.22in /  1023.2hPa West 3mph /  4.8km/h 13mph /  20.9km/h 78% 0.00in /  0mm 76 W/m2
09:50 54 °F /  12.2 °C 47.3 °F /  8.5 °C 30.22in /  1023.2hPa West 3mph /  4.8km/h 12mph /  19.3km/h 78% 0.00in /  0mm 89 W/m2
10:00 54 °F /  12.2 °C 47.3 °F /  8.5 °C 30.22in /  1023.2hPa West 7mph /  11.3km/h 11mph /  17.7km/h 78% 0.00in /  0mm 83 W/m2
10:10 54.1 °F /  12.3 °C 47.4 °F /  8.6 °C 30.22in /  1023.2hPa West 3mph /  4.8km/h 10mph /  16.1km/h 78% 0.00in /  0mm 76 W/m2
10:20 54.1 °F /  12.3 °C 47.4 °F /  8.6 °C 30.22in /  1023.2hPa West 3mph /  4.8km/h 7mph /  11.3km/h 78% 0.00in /  0mm 106 W/m2
10:30 54.1 °F /  12.3 °C 47.1 °F /  8.4 °C 30.22in /  1023.2hPa West 6mph /  9.7km/h 13mph /  20.9km/h 77% 0.00in /  0mm 103 W/m2
10:40 54.3 °F /  12.4 °C 47.3 °F /  8.5 °C 30.22in /  1023.2hPa West 6mph /  9.7km/h 11mph /  17.7km/h 77% 0.00in /  0mm 132 W/m2
10:50 54.5 °F /  12.5 °C 47.4 °F /  8.6 °C 30.22in /  1023.2hPa West 5mph /  8km/h 12mph /  19.3km/h 77% 0.00in /  0mm 188 W/m2
11:00 54.9 °F /  12.7 °C 47.8 °F /  8.8 °C 30.22in /  1023.2hPa WSW 6mph /  9.7km/h 11mph /  17.7km/h 77% 0.00in /  0mm 151 W/m2
11:10 55 °F /  12.8 °C 47.3 °F /  8.5 °C 30.22in /  1023.2hPa West 5mph /  8km/h 13mph /  20.9km/h 75% 0.00in /  0mm 110 W/m2
11:20 55 °F /  12.8 °C 47.3 °F /  8.5 °C 30.22in /  1023.2hPa WSW 5mph /  8km/h 12mph /  19.3km/h 75% 0.00in /  0mm 78 W/m2
11:30 55 °F /  12.8 °C 47.6 °F /  8.7 °C 30.22in /  1023.2hPa West 2mph /  3.2km/h 6mph /  9.7km/h 76% 0.00in /  0mm 68 W/m2
11:40 55 °F /  12.8 °C 47.3 °F /  8.5 °C 30.22in /  1023.2hPa WNW 5mph /  8km/h 8mph /  12.9km/h 75% 0.00in /  0mm 63 W/m2
11:50 55 °F /  12.8 °C 47.3 °F /  8.5 °C 30.22in /  1023.2hPa WNW 3mph /  4.8km/h 7mph /  11.3km/h 75% 0.00in /  0mm 64 W/m2
12:00 55 °F /  12.8 °C 47.3 °F /  8.5 °C 30.22in /  1023.2hPa WNW 3mph /  4.8km/h 6mph /  9.7km/h 75% 0.00in /  0mm 65 W/m2
12:10 55 °F /  12.8 °C 47.2 °F /  8.4 °C 30.22in /  1023.2hPa NW 1mph /  1.6km/h 6mph /  9.7km/h 75% 0.00in /  0mm 66 W/m2
12:20 55 °F /  12.8 °C 47.3 °F /  8.5 °C 30.22in /  1023.2hPa WNW 3mph /  4.8km/h 6mph /  9.7km/h 75% 0.00in /  0mm 73 W/m2
12:30 55 °F /  12.8 °C 47.3 °F /  8.5 °C 30.22in /  1023.2hPa NW 5mph /  8km/h 9mph /  14.5km/h 75% 0.00in /  0mm 59 W/m2
Knjazevac, Serbia
Compliments of Weather Underground - 2 mb